createdAt,value
2019-05-19T00:00:33.613Z,64.40
2019-05-19T00:03:02.601Z,60.57
2019-05-19T00:05:31.708Z,60.07
2019-05-19T00:08:00.524Z,61.67
2019-05-19T00:10:29.338Z,62.53
2019-05-19T00:12:58.411Z,64.97
2019-05-19T00:15:27.337Z,67.33
2019-05-19T00:17:56.132Z,68.83
2019-05-19T00:20:25.005Z,66.47
2019-05-19T00:22:53.828Z,70.30
2019-05-19T00:25:22.763Z,67.43
2019-05-19T00:27:51.545Z,68.67
2019-05-19T00:30:20.491Z,64.70
2019-05-19T00:32:49.310Z,69.37
2019-05-19T00:35:18.349Z,67.57
2019-05-19T00:37:47.254Z,67.13
2019-05-19T00:40:16.311Z,70.40
2019-05-19T00:42:45.241Z,68.70
2019-05-19T00:45:14.452Z,70.70
2019-05-19T00:47:43.620Z,69.00
2019-05-19T00:50:13.463Z,70.20
2019-05-19T00:52:42.347Z,69.13
2019-05-19T00:55:12.073Z,70.90
2019-05-19T00:57:40.994Z,66.77
2019-05-19T01:00:10.010Z,73.17
2019-05-19T01:02:38.873Z,72.40
2019-05-19T01:05:08.113Z,72.03
2019-05-19T01:07:37.060Z,74.73
2019-05-19T01:10:06.753Z,73.07
2019-05-19T01:12:35.607Z,72.20
2019-05-19T01:15:04.960Z,69.90
2019-05-19T01:17:33.812Z,76.77
2019-05-19T01:20:02.789Z,75.97
2019-05-19T01:22:31.636Z,73.47
2019-05-19T01:25:00.518Z,71.77
2019-05-19T01:27:29.311Z,72.97
2019-05-19T01:29:58.140Z,73.23
2019-05-19T01:32:27.059Z,75.43
2019-05-19T01:34:55.892Z,73.27
2019-05-19T01:37:24.875Z,72.53
2019-05-19T01:39:53.749Z,75.57
2019-05-19T01:42:22.612Z,75.07
2019-05-19T01:44:51.492Z,73.63
2019-05-19T01:47:20.481Z,72.60
2019-05-19T01:49:49.310Z,71.53
2019-05-19T01:52:18.113Z,73.67
2019-05-19T01:54:47.016Z,73.53
2019-05-19T01:57:15.868Z,72.40
2019-05-19T01:59:44.669Z,74.03
2019-05-19T02:02:13.467Z,74.80
2019-05-19T02:04:42.263Z,74.13
2019-05-19T02:07:11.149Z,75.90
2019-05-19T02:09:39.927Z,72.67
2019-05-19T02:12:08.722Z,78.00
2019-05-19T02:14:37.592Z,74.37
2019-05-19T02:17:06.487Z,69.67
2019-05-19T02:19:35.438Z,76.90
2019-05-19T02:22:04.558Z,74.80
2019-05-19T02:24:33.360Z,68.17
2019-05-19T02:27:02.188Z,69.27
2019-05-19T02:29:30.961Z,69.17
2019-05-19T02:31:59.839Z,68.30
2019-05-19T02:34:28.600Z,69.20
2019-05-19T02:36:57.606Z,70.93
2019-05-19T02:39:26.630Z,70.93
2019-05-19T02:41:56.824Z,71.33
2019-05-19T02:44:26.990Z,71.83
2019-05-19T02:46:57.324Z,67.13
2019-05-19T02:49:28.687Z,68.03
2019-05-19T02:51:59.240Z,66.87
2019-05-19T02:54:29.104Z,65.17
2019-05-19T02:56:59.501Z,65.50
2019-05-19T02:59:29.313Z,64.60
2019-05-19T03:02:03.943Z,65.23
2019-05-19T03:04:33.007Z,68.77
2019-05-19T03:07:01.799Z,63.97
2019-05-19T03:09:30.678Z,66.13
2019-05-19T03:11:59.729Z,67.33
2019-05-19T03:14:28.863Z,64.13
2019-05-19T03:16:57.787Z,65.87
2019-05-19T03:19:26.628Z,66.73
2019-05-19T03:21:55.483Z,69.33
2019-05-19T03:24:24.415Z,66.60
2019-05-19T03:26:53.218Z,72.00
2019-05-19T03:29:26.556Z,69.63
2019-05-19T03:32:13.465Z,67.37
2019-05-19T03:34:42.417Z,68.10
2019-05-19T03:37:11.283Z,66.90
2019-05-19T03:39:40.154Z,68.27
2019-05-19T03:42:10.603Z,64.70
2019-05-19T03:44:39.613Z,67.63
2019-05-19T03:47:08.432Z,67.13
2019-05-19T03:49:37.209Z,64.03
2019-05-19T03:52:06.081Z,64.90
2019-05-19T03:54:34.868Z,64.90
2019-05-19T03:57:03.749Z,64.47
2019-05-19T03:59:32.553Z,63.67
2019-05-19T04:02:01.351Z,59.77
2019-05-19T04:04:30.309Z,57.70
2019-05-19T04:06:59.185Z,57.33
2019-05-19T04:09:28.164Z,59.20
2019-05-19T04:11:56.931Z,55.63
2019-05-19T04:14:25.716Z,56.43
2019-05-19T04:16:54.501Z,57.33
2019-05-19T04:19:23.304Z,57.13
2019-05-19T04:21:52.149Z,57.83
2019-05-19T04:24:20.959Z,57.37
2019-05-19T04:26:50.114Z,58.83
2019-05-19T04:29:18.953Z,57.27
2019-05-19T04:31:47.920Z,56.77
2019-05-19T04:34:16.758Z,56.90
2019-05-19T04:36:45.708Z,56.03
2019-05-19T04:39:14.556Z,55.37
2019-05-19T04:41:43.415Z,55.63
2019-05-19T04:44:12.376Z,55.13
2019-05-19T04:46:41.231Z,54.33
2019-05-19T04:49:10.016Z,52.33
2019-05-19T04:51:38.788Z,52.30
2019-05-19T04:54:07.572Z,53.33
2019-05-19T04:56:36.344Z,52.33
2019-05-19T04:59:05.106Z,50.40
2019-05-19T05:01:33.959Z,51.57
2019-05-19T05:04:02.715Z,51.50
2019-05-19T05:06:31.512Z,51.23
2019-05-19T05:09:00.340Z,50.60
2019-05-19T05:11:29.197Z,50.43
2019-05-19T05:13:57.973Z,49.13
2019-05-19T05:16:26.793Z,47.53
2019-05-19T05:18:55.561Z,49.30
2019-05-19T05:21:24.561Z,49.47
2019-05-19T05:23:53.333Z,48.50
2019-05-19T05:26:22.138Z,46.57
2019-05-19T05:28:50.896Z,48.43
2019-05-19T05:31:19.761Z,46.87
2019-05-19T05:33:48.607Z,47.73
2019-05-19T05:36:17.397Z,47.47
2019-05-19T05:38:46.276Z,47.10
2019-05-19T05:41:15.057Z,46.73
2019-05-19T05:43:43.820Z,45.80
2019-05-19T05:46:12.691Z,45.87
2019-05-19T05:48:41.488Z,46.00
2019-05-19T05:51:10.254Z,47.27
2019-05-19T05:53:39.042Z,46.03
2019-05-19T05:56:07.829Z,47.17
2019-05-19T05:58:36.652Z,45.83
2019-05-19T06:01:05.508Z,45.87
2019-05-19T06:03:34.274Z,45.63
2019-05-19T06:06:03.049Z,47.27
2019-05-19T06:08:31.841Z,46.80
2019-05-19T06:11:00.608Z,45.97
2019-05-19T06:13:29.427Z,46.87
2019-05-19T06:15:58.303Z,47.70
2019-05-19T06:18:27.330Z,46.70
2019-05-19T06:20:56.094Z,46.75
2019-05-19T06:23:25.043Z,47.50
2019-05-19T06:25:53.837Z,47.53
2019-05-19T06:28:22.776Z,46.80
2019-05-19T06:30:51.626Z,45.60
2019-05-19T06:33:20.568Z,45.67
2019-05-19T06:35:49.325Z,45.73
2019-05-19T06:38:18.155Z,46.45
2019-05-19T06:40:48.801Z,45.13
2019-05-19T06:43:17.631Z,45.10
2019-05-19T06:45:46.392Z,45.70
2019-05-19T06:48:15.188Z,45.63
2019-05-19T06:50:44.023Z,45.58
2019-05-19T06:53:14.533Z,47.63
2019-05-19T06:55:43.404Z,45.67
2019-05-19T06:58:12.240Z,47.20
2019-05-19T07:00:41.036Z,45.73
2019-05-19T07:03:09.854Z,48.13
2019-05-19T07:05:38.725Z,47.48
2019-05-19T07:08:07.612Z,47.35
2019-05-19T07:10:38.809Z,47.55
2019-05-19T07:13:07.583Z,44.87
2019-05-19T07:15:36.673Z,46.40
2019-05-19T07:18:05.563Z,44.60
2019-05-19T07:20:34.645Z,44.80
2019-05-19T07:23:03.580Z,43.60
2019-05-19T07:25:32.444Z,43.48
2019-05-19T07:28:02.457Z,42.20
2019-05-19T07:30:31.307Z,43.92
2019-05-19T07:33:00.290Z,44.80
2019-05-19T07:35:29.179Z,43.30
2019-05-19T07:37:58.049Z,43.48
2019-05-19T07:40:26.906Z,41.75
2019-05-19T07:42:56.041Z,43.17
2019-05-19T07:45:24.890Z,41.83
2019-05-19T07:47:53.788Z,43.73
2019-05-19T07:50:22.590Z,41.53
2019-05-19T07:52:51.410Z,41.88
2019-05-19T07:55:20.383Z,41.68
2019-05-19T07:57:49.131Z,42.58
2019-05-19T08:00:18.650Z,41.63
2019-05-19T08:02:47.754Z,40.63
2019-05-19T08:05:16.720Z,40.70
2019-05-19T08:07:45.843Z,39.00
2019-05-19T08:10:14.924Z,38.58
2019-05-19T08:12:43.997Z,36.45
2019-05-19T08:15:13.032Z,35.92
2019-05-19T08:17:41.909Z,36.00
2019-05-19T08:20:10.998Z,34.85
2019-05-19T08:22:39.948Z,35.58
2019-05-19T08:25:09.088Z,34.88
2019-05-19T08:27:38.079Z,34.75
2019-05-19T08:30:07.633Z,34.85
2019-05-19T08:32:36.728Z,35.68
2019-05-19T08:35:06.303Z,34.23
2019-05-19T08:37:35.293Z,33.30
2019-05-19T08:40:04.886Z,34.90
2019-05-19T08:42:33.724Z,33.67
2019-05-19T08:45:02.906Z,34.18
2019-05-19T08:47:31.767Z,36.33
2019-05-19T08:50:00.624Z,33.60
2019-05-19T08:52:29.444Z,36.25
2019-05-19T08:54:58.306Z,36.40
2019-05-19T08:57:27.133Z,36.03
2019-05-19T08:59:55.989Z,36.73
2019-05-19T09:02:25.125Z,36.68
2019-05-19T09:04:53.891Z,34.48
2019-05-19T09:07:22.688Z,34.48
2019-05-19T09:09:52.637Z,36.65
2019-05-19T09:12:21.546Z,37.40
2019-05-19T09:14:50.415Z,38.78
2019-05-19T09:17:19.181Z,37.95
2019-05-19T09:19:48.196Z,37.50
2019-05-19T09:22:16.965Z,38.65
2019-05-19T09:24:45.795Z,35.80
2019-05-19T09:27:14.637Z,36.00
2019-05-19T09:29:43.428Z,35.38
2019-05-19T09:32:12.276Z,34.90
2019-05-19T09:34:41.096Z,34.43
2019-05-19T09:37:09.967Z,35.95
2019-05-19T09:39:38.970Z,35.38
2019-05-19T09:42:07.748Z,31.97
2019-05-19T09:44:36.537Z,35.10
2019-05-19T09:47:05.321Z,34.70
2019-05-19T09:49:35.349Z,34.35
2019-05-19T09:52:06.391Z,33.83
2019-05-19T09:54:44.918Z,36.35
2019-05-19T09:57:05.991Z,35.50
2019-05-19T09:59:34.933Z,35.43
2019-05-19T10:02:03.981Z,36.05
2019-05-19T10:04:32.882Z,34.83
2019-05-19T10:07:02.262Z,35.25
2019-05-19T10:10:01.318Z,34.95
2019-05-19T10:12:30.749Z,32.67
2019-05-19T10:14:59.845Z,34.85
2019-05-19T10:17:28.885Z,33.98
2019-05-19T10:19:57.936Z,35.48
2019-05-19T10:22:27.008Z,34.83
2019-05-19T10:25:18.136Z,35.90
2019-05-19T10:27:26.769Z,34.25
2019-05-19T10:29:55.919Z,31.75
2019-05-19T10:32:24.954Z,31.27
2019-05-19T10:34:54.133Z,32.78
2019-05-19T10:37:23.142Z,31.68
2019-05-19T10:39:52.148Z,33.33
2019-05-19T10:42:21.220Z,31.97
2019-05-19T10:44:52.205Z,32.53
2019-05-19T10:47:21.182Z,31.95
2019-05-19T10:49:50.310Z,32.70
2019-05-19T10:52:19.329Z,33.75
2019-05-19T10:54:48.485Z,30.48
2019-05-19T10:57:17.440Z,33.20
2019-05-19T10:59:46.412Z,34.15
2019-05-19T11:02:15.501Z,33.75
2019-05-19T11:04:44.367Z,34.00
2019-05-19T11:07:13.214Z,32.55
2019-05-19T11:09:42.028Z,32.28
2019-05-19T11:12:14.496Z,31.62
2019-05-19T11:14:43.520Z,33.15
2019-05-19T11:17:12.519Z,33.18
2019-05-19T11:19:41.659Z,34.48
2019-05-19T11:22:10.810Z,34.75
2019-05-19T11:24:39.697Z,32.28
2019-05-19T11:27:10.048Z,34.10
2019-05-19T11:29:39.212Z,34.00
2019-05-19T11:32:08.042Z,35.08
2019-05-19T11:34:37.080Z,36.35
2019-05-19T11:37:07.451Z,36.95
2019-05-19T11:39:36.499Z,34.73
2019-05-19T11:42:05.268Z,35.30
2019-05-19T11:44:34.127Z,35.38
2019-05-19T11:47:03.042Z,35.28
2019-05-19T11:49:31.823Z,33.83
2019-05-19T11:52:00.687Z,35.08
2019-05-19T11:54:29.507Z,36.13
2019-05-19T11:56:58.384Z,34.35
2019-05-19T11:59:27.559Z,37.78
2019-05-19T12:01:56.528Z,34.90
2019-05-19T12:04:25.296Z,33.18
2019-05-19T12:06:54.136Z,33.65
2019-05-19T12:09:22.996Z,37.10
2019-05-19T12:11:51.897Z,34.50
2019-05-19T12:14:20.649Z,35.48
2019-05-19T12:16:49.656Z,35.03
2019-05-19T12:19:18.527Z,35.35
2019-05-19T12:21:47.380Z,36.98
2019-05-19T12:24:16.214Z,35.65
2019-05-19T12:26:45.169Z,36.00
2019-05-19T12:29:13.925Z,35.50
2019-05-19T12:31:42.715Z,35.17
2019-05-19T12:34:11.537Z,34.85
2019-05-19T12:36:40.676Z,36.38
2019-05-19T12:39:09.505Z,33.45
2019-05-19T12:41:38.381Z,36.15
2019-05-19T12:44:07.248Z,35.68
2019-05-19T12:46:36.349Z,36.73
2019-05-19T12:49:05.208Z,38.15
2019-05-19T12:51:33.986Z,36.93
2019-05-19T12:54:02.735Z,37.53
2019-05-19T12:56:39.708Z,36.63
2019-05-19T12:59:02.092Z,38.42
2019-05-19T13:01:30.923Z,39.92
2019-05-19T13:03:59.721Z,37.60
2019-05-19T13:06:28.486Z,36.98
2019-05-19T13:08:57.256Z,36.88
2019-05-19T13:11:26.037Z,36.55
2019-05-19T13:13:55.048Z,37.13
2019-05-19T13:16:23.863Z,36.75
2019-05-19T13:18:52.729Z,37.88
2019-05-19T13:21:21.572Z,38.92
2019-05-19T13:23:50.427Z,39.85
2019-05-19T13:26:19.235Z,36.65
2019-05-19T13:28:48.026Z,37.63
2019-05-19T13:31:16.999Z,38.67
2019-05-19T13:33:45.819Z,38.15
2019-05-19T13:36:14.732Z,37.55
2019-05-19T13:38:43.838Z,38.70
2019-05-19T13:41:12.707Z,36.13
2019-05-19T13:43:41.624Z,35.58
2019-05-19T13:46:10.656Z,36.17
2019-05-19T13:48:39.522Z,34.15
2019-05-19T13:51:08.443Z,35.38
2019-05-19T13:53:37.356Z,36.73
2019-05-19T13:56:06.332Z,37.58
2019-05-19T13:58:35.228Z,37.58
2019-05-19T14:01:05.136Z,35.05
2019-05-19T14:03:34.287Z,34.53
2019-05-19T14:06:03.288Z,38.13
2019-05-19T14:08:32.259Z,33.95
2019-05-19T14:11:01.056Z,35.30
2019-05-19T14:13:29.931Z,34.23
2019-05-19T14:15:58.740Z,34.38
2019-05-19T14:18:27.492Z,35.05
2019-05-19T14:20:56.718Z,33.42
2019-05-19T14:23:25.687Z,33.65
2019-05-19T14:25:55.129Z,31.05
2019-05-19T14:28:23.991Z,32.80
2019-05-19T14:30:53.086Z,33.23
2019-05-19T14:33:22.091Z,34.35
2019-05-19T14:35:51.393Z,34.00
2019-05-19T14:38:20.396Z,34.10
2019-05-19T14:40:49.358Z,33.88
2019-05-19T14:43:19.008Z,31.05
2019-05-19T14:45:47.932Z,32.90
2019-05-19T14:48:16.873Z,31.07
2019-05-19T14:50:45.824Z,30.55
2019-05-19T14:53:15.011Z,29.75
2019-05-19T14:55:43.924Z,28.80
2019-05-19T14:58:12.777Z,30.92
2019-05-19T15:00:41.726Z,31.27
2019-05-19T15:03:10.785Z,31.23
2019-05-19T15:05:39.860Z,31.20
2019-05-19T15:08:08.756Z,31.97
2019-05-19T15:10:37.619Z,28.45
2019-05-19T15:13:06.471Z,30.07
2019-05-19T15:15:35.435Z,30.10
2019-05-19T15:18:04.285Z,30.87
2019-05-19T15:20:33.194Z,32.23
2019-05-19T15:23:02.009Z,32.60
2019-05-19T15:25:31.065Z,32.60
2019-05-19T15:28:04.416Z,33.47
2019-05-19T15:30:30.540Z,32.60
2019-05-19T15:32:59.823Z,31.67
2019-05-19T15:35:28.602Z,32.07
2019-05-19T15:37:57.517Z,32.37
2019-05-19T15:40:26.322Z,29.80
2019-05-19T15:42:55.283Z,30.57
2019-05-19T15:45:24.204Z,32.60
2019-05-19T15:47:53.009Z,31.95
2019-05-19T15:50:21.905Z,33.47
2019-05-19T15:52:50.768Z,32.23
2019-05-19T15:55:19.588Z,31.83
2019-05-19T15:57:48.379Z,30.33
2019-05-19T16:00:17.473Z,31.40
2019-05-19T16:02:46.417Z,30.77
2019-05-19T16:05:15.600Z,31.33
2019-05-19T16:07:45.631Z,32.03
2019-05-19T16:10:14.960Z,29.47
2019-05-19T16:12:43.860Z,31.87
2019-05-19T16:15:13.181Z,31.77
2019-05-19T16:17:42.415Z,30.13
2019-05-19T16:20:11.803Z,30.57
2019-05-19T16:22:40.632Z,30.53
2019-05-19T16:25:09.641Z,29.57
2019-05-19T16:27:38.844Z,31.67
2019-05-19T16:30:08.232Z,30.30
2019-05-19T16:32:37.067Z,27.90
2019-05-19T16:35:06.111Z,29.60
2019-05-19T16:37:34.899Z,29.33
2019-05-19T16:40:04.003Z,29.43
2019-05-19T16:42:32.774Z,27.60
2019-05-19T16:45:01.545Z,25.23
2019-05-19T16:47:30.300Z,24.60
2019-05-19T16:49:59.088Z,26.60
2019-05-19T16:52:27.842Z,27.20
2019-05-19T16:55:14.514Z,27.07
2019-05-19T16:57:43.646Z,24.70
2019-05-19T17:00:12.948Z,25.50
2019-05-19T17:02:41.733Z,26.63
2019-05-19T17:05:10.960Z,26.40
2019-05-19T17:07:39.736Z,25.97
2019-05-19T17:10:08.761Z,26.70
2019-05-19T17:12:37.590Z,25.23
2019-05-19T17:15:07.181Z,27.40
2019-05-19T17:17:36.018Z,26.33
2019-05-19T17:20:05.458Z,26.97
2019-05-19T17:22:34.369Z,24.97
2019-05-19T17:25:03.123Z,26.53
2019-05-19T17:27:31.915Z,28.00
2019-05-19T17:30:00.667Z,28.33
2019-05-19T17:32:29.489Z,27.10
2019-05-19T17:34:58.287Z,25.30
2019-05-19T17:37:27.147Z,25.43
2019-05-19T17:39:55.917Z,24.57
2019-05-19T17:42:24.769Z,25.80
2019-05-19T17:44:56.005Z,27.50
2019-05-19T17:47:24.768Z,26.33
2019-05-19T17:49:53.603Z,26.60
2019-05-19T17:52:22.512Z,26.73
2019-05-19T17:54:51.446Z,27.37
2019-05-19T17:57:20.370Z,25.23
2019-05-19T17:59:50.853Z,28.67
2019-05-19T18:02:19.743Z,27.90
2019-05-19T18:04:48.503Z,28.50
2019-05-19T18:07:25.246Z,29.23
2019-05-19T18:09:54.126Z,27.97
2019-05-19T18:12:22.964Z,27.53
2019-05-19T18:14:52.155Z,30.10
2019-05-19T18:17:21.275Z,27.17
2019-05-19T18:19:50.140Z,29.37
2019-05-19T18:22:19.080Z,27.73
2019-05-19T18:24:47.977Z,26.20
2019-05-19T18:27:16.820Z,27.53
2019-05-19T18:29:45.628Z,26.10
2019-05-19T18:32:14.441Z,26.63
2019-05-19T18:34:43.343Z,27.73
2019-05-19T18:37:13.538Z,29.33
2019-05-19T18:39:42.649Z,28.27
2019-05-19T18:42:11.462Z,30.07
2019-05-19T18:44:42.001Z,27.73
2019-05-19T18:47:10.913Z,30.23
2019-05-19T18:49:39.712Z,28.10
2019-05-19T18:52:08.572Z,29.60
2019-05-19T18:54:37.564Z,31.43
2019-05-19T18:57:06.637Z,30.70
2019-05-19T18:59:46.794Z,30.13
2019-05-19T19:02:06.108Z,30.50
2019-05-19T19:04:35.061Z,30.90
2019-05-19T19:07:03.973Z,31.53
2019-05-19T19:09:32.852Z,30.10
2019-05-19T19:12:01.676Z,28.10
2019-05-19T19:14:30.460Z,28.40
2019-05-19T19:16:59.386Z,29.37
2019-05-19T19:19:28.281Z,29.60
2019-05-19T19:21:58.536Z,29.93
2019-05-19T19:24:27.774Z,29.50
2019-05-19T19:26:56.627Z,28.73
2019-05-19T19:29:25.473Z,27.90
2019-05-19T19:31:54.410Z,28.13
2019-05-19T19:34:23.270Z,29.33
2019-05-19T19:36:52.191Z,28.27
2019-05-19T19:39:21.198Z,28.87
2019-05-19T19:41:50.172Z,30.30
2019-05-19T19:44:19.136Z,30.50
2019-05-19T19:46:47.880Z,30.57
2019-05-19T19:49:16.749Z,29.87
2019-05-19T19:51:45.640Z,27.93
2019-05-19T19:54:14.519Z,30.73
2019-05-19T19:56:43.307Z,29.53
2019-05-19T19:59:12.353Z,27.37
2019-05-19T20:01:41.245Z,29.30
2019-05-19T20:04:10.139Z,27.93
2019-05-19T20:06:39.036Z,28.77
2019-05-19T20:09:08.120Z,30.13
2019-05-19T20:11:36.979Z,30.10
2019-05-19T20:14:05.806Z,31.13
2019-05-19T20:16:34.599Z,31.53
2019-05-19T20:19:03.452Z,32.57
2019-05-19T20:21:32.375Z,33.07
2019-05-19T20:24:03.270Z,33.60
2019-05-19T20:26:32.048Z,34.27
2019-05-19T20:29:00.808Z,33.93
2019-05-19T20:31:31.465Z,35.63
2019-05-19T20:34:00.246Z,34.43
2019-05-19T20:36:29.141Z,36.63
2019-05-19T20:38:58.097Z,37.23
2019-05-19T20:41:26.944Z,38.60
2019-05-19T20:43:55.750Z,39.70
2019-05-19T20:46:24.591Z,43.67
2019-05-19T20:48:53.390Z,42.13
2019-05-19T20:51:22.301Z,42.30
2019-05-19T20:53:53.307Z,44.87
2019-05-19T20:56:21.947Z,47.97
2019-05-19T20:58:50.816Z,47.47
2019-05-19T21:01:19.652Z,42.07
2019-05-19T21:03:48.403Z,45.70
2019-05-19T21:06:17.186Z,46.30
2019-05-19T21:08:46.069Z,41.77
2019-05-19T21:11:14.916Z,46.17
2019-05-19T21:13:43.668Z,44.57
2019-05-19T21:16:12.596Z,45.33
2019-05-19T21:18:41.377Z,46.93
2019-05-19T21:21:11.428Z,50.03
2019-05-19T21:23:40.259Z,48.80
2019-05-19T21:26:09.019Z,45.43
2019-05-19T21:28:37.862Z,40.90
2019-05-19T21:31:06.667Z,39.53
2019-05-19T21:33:35.688Z,42.47
2019-05-19T21:36:04.483Z,38.73
2019-05-19T21:38:33.369Z,37.37
2019-05-19T21:41:02.375Z,39.77
2019-05-19T21:43:31.222Z,35.73
2019-05-19T21:46:00.371Z,35.60
2019-05-19T21:48:33.467Z,33.20
2019-05-19T21:51:02.458Z,30.73
2019-05-19T21:53:31.289Z,32.57
2019-05-19T21:56:00.185Z,31.53
2019-05-19T21:58:28.979Z,33.43
2019-05-19T22:00:57.920Z,30.77
2019-05-19T22:03:26.751Z,33.10
2019-05-19T22:05:55.512Z,31.93
2019-05-19T22:08:24.729Z,34.30
2019-05-19T22:10:53.544Z,34.43
2019-05-19T22:13:22.537Z,33.77
2019-05-19T22:15:51.458Z,32.73
2019-05-19T22:18:20.465Z,31.77
2019-05-19T22:20:49.348Z,34.07
2019-05-19T22:23:18.350Z,31.47
2019-05-19T22:25:47.289Z,33.17
2019-05-19T22:28:16.183Z,29.83
2019-05-19T22:30:45.066Z,30.03
2019-05-19T22:33:13.859Z,30.93
2019-05-19T22:35:42.743Z,30.77
2019-05-19T22:38:11.601Z,29.37
2019-05-19T22:40:40.508Z,29.07
2019-05-19T22:43:09.406Z,27.73
2019-05-19T22:45:38.343Z,29.33
2019-05-19T22:48:07.333Z,28.67
2019-05-19T22:50:36.188Z,26.50
2019-05-19T22:53:05.128Z,26.37
2019-05-19T22:55:33.935Z,25.43
2019-05-19T22:58:02.709Z,23.63
2019-05-19T23:00:31.632Z,25.43
2019-05-19T23:03:00.600Z,23.37
2019-05-19T23:05:29.445Z,24.80
2019-05-19T23:07:58.316Z,22.33
2019-05-19T23:10:27.255Z,23.70
2019-05-19T23:12:56.064Z,23.63
2019-05-19T23:15:25.271Z,23.57
2019-05-19T23:17:54.090Z,23.33
2019-05-19T23:20:23.098Z,22.63
2019-05-19T23:22:51.983Z,24.10
2019-05-19T23:25:20.765Z,22.43
2019-05-19T23:27:49.593Z,21.43
2019-05-19T23:30:18.525Z,23.30
2019-05-19T23:32:47.305Z,22.23
2019-05-19T23:35:16.271Z,20.80
2019-05-19T23:37:45.055Z,21.93
2019-05-19T23:40:14.067Z,21.20
2019-05-19T23:42:43.179Z,21.37
2019-05-19T23:45:12.439Z,20.13
2019-05-19T23:47:41.189Z,21.87
2019-05-19T23:50:10.108Z,22.10
2019-05-19T23:52:39.027Z,22.73
2019-05-19T23:55:07.873Z,22.33
2019-05-19T23:57:36.643Z,23.30
